sensor_id;sensor_type;location;lat;lon;timestamp;pressure;altitude;pressure_sealevel;temperature;humidity
48424;BME280;34232;42.502;26.014;2022-10-16T00:01:10;100786.56;;;11.82;63.76
48424;BME280;34232;42.502;26.014;2022-10-16T00:03:37;100785.28;;;11.75;63.05
48424;BME280;34232;42.502;26.014;2022-10-16T00:06:03;100791.28;;;11.66;63.39
48424;BME280;34232;42.502;26.014;2022-10-16T00:08:29;100794.47;;;11.58;63.84
48424;BME280;34232;42.502;26.014;2022-10-16T00:13:30;100795.09;;;11.38;65.85
48424;BME280;34232;42.502;26.014;2022-10-16T00:15:57;100790.56;;;11.40;65.30
48424;BME280;34232;42.502;26.014;2022-10-16T00:18:23;100783.22;;;11.33;64.73
48424;BME280;34232;42.502;26.014;2022-10-16T00:20:49;100784.09;;;11.20;65.28
48424;BME280;34232;42.502;26.014;2022-10-16T00:23:15;100778.75;;;10.98;66.34
48424;BME280;34232;42.502;26.014;2022-10-16T00:25:40;100785.69;;;10.99;67.92
48424;BME280;34232;42.502;26.014;2022-10-16T00:28:06;100783.22;;;11.09;68.70
48424;BME280;34232;42.502;26.014;2022-10-16T00:30:31;100794.44;;;11.23;68.47
48424;BME280;34232;42.502;26.014;2022-10-16T00:32:56;100784.06;;;11.33;68.39
48424;BME280;34232;42.502;26.014;2022-10-16T00:35:22;100778.94;;;11.43;67.66
48424;BME280;34232;42.502;26.014;2022-10-16T00:37:47;100799.41;;;11.63;67.15
48424;BME280;34232;42.502;26.014;2022-10-16T00:40:13;100786.25;;;11.74;66.64
48424;BME280;34232;42.502;26.014;2022-10-16T00:42:38;100800.75;;;11.69;67.17
48424;BME280;34232;42.502;26.014;2022-10-16T00:45:05;100785.75;;;11.69;66.98
48424;BME280;34232;42.502;26.014;2022-10-16T00:47:34;100792.28;;;11.76;66.61
48424;BME280;34232;42.502;26.014;2022-10-16T00:50:18;100804.94;;;11.71;66.58
48424;BME280;34232;42.502;26.014;2022-10-16T00:52:47;100796.91;;;11.73;65.63
48424;BME280;34232;42.502;26.014;2022-10-16T00:55:13;100805.19;;;11.68;65.50
48424;BME280;34232;42.502;26.014;2022-10-16T00:57:40;100803.09;;;11.61;65.96
48424;BME280;34232;42.502;26.014;2022-10-16T01:00:08;100807.75;;;11.57;66.05
48424;BME280;34232;42.502;26.014;2022-10-16T01:02:35;100808.75;;;11.32;67.59
48424;BME280;34232;42.502;26.014;2022-10-16T01:05:01;100808.63;;;11.34;67.84
48424;BME280;34232;42.502;26.014;2022-10-16T01:07:49;100808.97;;;11.29;68.32
48424;BME280;34232;42.502;26.014;2022-10-16T01:10:38;100809.81;;;11.30;67.93
48424;BME280;34232;42.502;26.014;2022-10-16T01:18:18;100818.03;;;11.25;67.31
48424;BME280;34232;42.502;26.014;2022-10-16T01:20:56;100820.13;;;11.33;67.52
48424;BME280;34232;42.502;26.014;2022-10-16T01:26:10;100826.22;;;11.57;66.50
48424;BME280;34232;42.502;26.014;2022-10-16T01:28:45;100817.13;;;11.61;66.32
48424;BME280;34232;42.502;26.014;2022-10-16T01:31:15;100831.41;;;11.82;65.67
48424;BME280;34232;42.502;26.014;2022-10-16T01:33:46;100842.69;;;11.96;65.25
48424;BME280;34232;42.502;26.014;2022-10-16T01:36:19;100836.38;;;12.09;64.38
48424;BME280;34232;42.502;26.014;2022-10-16T01:38:47;100828.97;;;12.14;63.50
48424;BME280;34232;42.502;26.014;2022-10-16T01:41:27;100831.25;;;12.30;63.46
48424;BME280;34232;42.502;26.014;2022-10-16T01:44:25;100840.13;;;12.40;62.81
48424;BME280;34232;42.502;26.014;2022-10-16T01:46:54;100833.19;;;12.39;63.38
48424;BME280;34232;42.502;26.014;2022-10-16T01:49:21;100837.88;;;12.47;62.90
48424;BME280;34232;42.502;26.014;2022-10-16T01:51:50;100833.66;;;12.44;62.83
48424;BME280;34232;42.502;26.014;2022-10-16T01:54:19;100835.13;;;12.48;62.75
48424;BME280;34232;42.502;26.014;2022-10-16T01:56:46;100823.09;;;12.44;62.40
48424;BME280;34232;42.502;26.014;2022-10-16T01:59:18;100817.72;;;12.46;62.01
48424;BME280;34232;42.502;26.014;2022-10-16T02:01:50;100833.16;;;12.50;62.38
48424;BME280;34232;42.502;26.014;2022-10-16T02:04:22;100827.44;;;12.56;62.28
48424;BME280;34232;42.502;26.014;2022-10-16T02:06:49;100813.63;;;12.53;61.64
48424;BME280;34232;42.502;26.014;2022-10-16T02:09:14;100824.78;;;12.56;61.54
48424;BME280;34232;42.502;26.014;2022-10-16T02:11:42;100827.44;;;12.56;61.78
48424;BME280;34232;42.502;26.014;2022-10-16T02:14:08;100833.91;;;12.52;61.98
48424;BME280;34232;42.502;26.014;2022-10-16T02:16:38;100822.38;;;12.42;62.40
48424;BME280;34232;42.502;26.014;2022-10-16T02:19:05;100828.84;;;12.27;62.91
48424;BME280;34232;42.502;26.014;2022-10-16T02:21:54;100841.94;;;12.29;62.80
48424;BME280;34232;42.502;26.014;2022-10-16T02:24:28;100840.09;;;12.18;63.28
48424;BME280;34232;42.502;26.014;2022-10-16T02:27:03;100843.47;;;12.20;63.07
48424;BME280;34232;42.502;26.014;2022-10-16T02:29:32;100832.78;;;12.10;63.62
48424;BME280;34232;42.502;26.014;2022-10-16T02:32:04;100844.41;;;12.08;63.69
48424;BME280;34232;42.502;26.014;2022-10-16T02:34:32;100852.53;;;11.94;63.87
48424;BME280;34232;42.502;26.014;2022-10-16T02:37:00;100848.66;;;11.86;64.47
48424;BME280;34232;42.502;26.014;2022-10-16T02:39:28;100842.06;;;11.81;64.73
48424;BME280;34232;42.502;26.014;2022-10-16T02:41:54;100854.19;;;11.71;65.04
48424;BME280;34232;42.502;26.014;2022-10-16T02:44:19;100859.03;;;11.53;65.96
48424;BME280;34232;42.502;26.014;2022-10-16T02:46:45;100862.31;;;11.33;66.46
48424;BME280;34232;42.502;26.014;2022-10-16T02:49:10;100868.63;;;11.30;66.83
48424;BME280;34232;42.502;26.014;2022-10-16T02:51:36;100859.66;;;11.33;66.83
48424;BME280;34232;42.502;26.014;2022-10-16T02:54:02;100853.38;;;11.22;66.62
48424;BME280;34232;42.502;26.014;2022-10-16T02:56:27;100862.47;;;11.18;66.68
48424;BME280;34232;42.502;26.014;2022-10-16T02:58:53;100872.53;;;11.01;67.27
48424;BME280;34232;42.502;26.014;2022-10-16T03:01:18;100870.00;;;10.99;67.08
48424;BME280;34232;42.502;26.014;2022-10-16T03:03:43;100875.91;;;11.03;66.95
48424;BME280;34232;42.502;26.014;2022-10-16T03:06:09;100878.84;;;10.98;67.38
48424;BME280;34232;42.502;26.014;2022-10-16T03:08:34;100876.75;;;10.91;68.37
48424;BME280;34232;42.502;26.014;2022-10-16T03:11:00;100883.16;;;10.99;68.52
48424;BME280;34232;42.502;26.014;2022-10-16T03:13:25;100884.00;;;11.00;68.39
48424;BME280;34232;42.502;26.014;2022-10-16T03:15:51;100890.22;;;10.99;68.68
48424;BME280;34232;42.502;26.014;2022-10-16T03:18:16;100895.59;;;10.97;68.57
48424;BME280;34232;42.502;26.014;2022-10-16T03:20:45;100876.75;;;10.78;68.72
48424;BME280;34232;42.502;26.014;2022-10-16T03:23:10;100886.69;;;10.87;68.51
48424;BME280;34232;42.502;26.014;2022-10-16T03:25:36;100895.53;;;10.86;68.87
48424;BME280;34232;42.502;26.014;2022-10-16T03:28:02;100890.25;;;10.86;69.12
48424;BME280;34232;42.502;26.014;2022-10-16T03:30:28;100896.16;;;10.77;69.51
48424;BME280;34232;42.502;26.014;2022-10-16T03:32:53;100892.97;;;10.72;69.59
48424;BME280;34232;42.502;26.014;2022-10-16T03:35:20;100896.59;;;10.71;69.62
48424;BME280;34232;42.502;26.014;2022-10-16T03:37:45;100900.88;;;10.72;69.54
48424;BME280;34232;42.502;26.014;2022-10-16T03:40:11;100901.88;;;10.71;69.59
48424;BME280;34232;42.502;26.014;2022-10-16T03:42:36;100900.16;;;10.70;69.79
48424;BME280;34232;42.502;26.014;2022-10-16T03:45:02;100897.22;;;10.62;69.95
48424;BME280;34232;42.502;26.014;2022-10-16T03:47:28;100910.72;;;10.70;70.28
48424;BME280;34232;42.502;26.014;2022-10-16T03:49:53;100911.31;;;10.61;70.44
48424;BME280;34232;42.502;26.014;2022-10-16T03:52:18;100920.41;;;10.69;70.54
48424;BME280;34232;42.502;26.014;2022-10-16T03:54:44;100917.75;;;10.82;69.35
48424;BME280;34232;42.502;26.014;2022-10-16T03:57:09;100916.50;;;10.88;68.49
48424;BME280;34232;42.502;26.014;2022-10-16T03:59:35;100916.88;;;10.94;68.50
48424;BME280;34232;42.502;26.014;2022-10-16T04:02:00;100905.63;;;10.92;68.17
48424;BME280;34232;42.502;26.014;2022-10-16T04:04:25;100901.81;;;10.96;68.19
48424;BME280;34232;42.502;26.014;2022-10-16T04:06:51;100912.53;;;11.06;67.98
48424;BME280;34232;42.502;26.014;2022-10-16T04:09:16;100914.66;;;11.13;67.49
48424;BME280;34232;42.502;26.014;2022-10-16T04:11:42;100908.81;;;11.21;67.07
48424;BME280;34232;42.502;26.014;2022-10-16T04:14:07;100897.00;;;11.27;66.71
48424;BME280;34232;42.502;26.014;2022-10-16T04:16:33;100900.66;;;11.37;66.58
48424;BME280;34232;42.502;26.014;2022-10-16T04:18:58;100898.31;;;11.45;65.87
48424;BME280;34232;42.502;26.014;2022-10-16T04:21:23;100911.56;;;11.56;65.86
48424;BME280;34232;42.502;26.014;2022-10-16T04:23:49;100909.28;;;11.51;66.06
48424;BME280;34232;42.502;26.014;2022-10-16T04:26:17;100920.19;;;11.58;65.58
48424;BME280;34232;42.502;26.014;2022-10-16T04:28:42;100913.97;;;11.59;65.51
48424;BME280;34232;42.502;26.014;2022-10-16T04:31:08;100916.41;;;11.62;65.13
48424;BME280;34232;42.502;26.014;2022-10-16T04:33:33;100923.88;;;11.68;65.04
48424;BME280;34232;42.502;26.014;2022-10-16T04:36:00;100914.03;;;11.70;63.80
48424;BME280;34232;42.502;26.014;2022-10-16T04:38:26;100925.09;;;11.75;63.83
48424;BME280;34232;42.502;26.014;2022-10-16T04:40:52;100925.19;;;11.74;63.87
48424;BME280;34232;42.502;26.014;2022-10-16T04:43:18;100924.69;;;11.81;63.52
48424;BME280;34232;42.502;26.014;2022-10-16T04:45:43;100935.28;;;11.93;63.46
48424;BME280;34232;42.502;26.014;2022-10-16T04:48:09;100933.16;;;11.98;63.04
48424;BME280;34232;42.502;26.014;2022-10-16T04:50:34;100929.09;;;12.05;62.87
48424;BME280;34232;42.502;26.014;2022-10-16T04:53:00;100920.91;;;11.97;63.36
48424;BME280;34232;42.502;26.014;2022-10-16T04:55:25;100932.44;;;12.07;62.95
48424;BME280;34232;42.502;26.014;2022-10-16T04:57:51;100935.81;;;12.09;63.10
48424;BME280;34232;42.502;26.014;2022-10-16T05:00:16;100943.13;;;12.05;63.84
48424;BME280;34232;42.502;26.014;2022-10-16T05:02:42;100947.66;;;12.03;63.21
48424;BME280;34232;42.502;26.014;2022-10-16T05:05:07;100924.72;;;11.93;63.57
48424;BME280;34232;42.502;26.014;2022-10-16T05:07:33;100947.06;;;12.00;63.85
48424;BME280;34232;42.502;26.014;2022-10-16T05:09:58;100948.75;;;12.01;63.32
48424;BME280;34232;42.502;26.014;2022-10-16T05:12:24;100948.13;;;11.97;63.44
48424;BME280;34232;42.502;26.014;2022-10-16T05:14:49;100959.53;;;11.98;63.08
48424;BME280;34232;42.502;26.014;2022-10-16T05:17:14;100963.13;;;11.97;63.55
48424;BME280;34232;42.502;26.014;2022-10-16T05:19:40;100955.44;;;11.94;63.46
48424;BME280;34232;42.502;26.014;2022-10-16T05:22:08;100953.00;;;11.90;63.57
48424;BME280;34232;42.502;26.014;2022-10-16T05:24:33;100962.19;;;11.98;64.20
48424;BME280;34232;42.502;26.014;2022-10-16T05:26:59;100961.22;;;11.99;64.45
48424;BME280;34232;42.502;26.014;2022-10-16T05:29:24;100962.44;;;12.06;64.25
48424;BME280;34232;42.502;26.014;2022-10-16T05:31:53;100953.06;;;12.02;64.61
48424;BME280;34232;42.502;26.014;2022-10-16T05:34:19;100971.81;;;12.10;63.87
48424;BME280;34232;42.502;26.014;2022-10-16T05:36:45;100974.03;;;12.16;63.96
48424;BME280;34232;42.502;26.014;2022-10-16T05:39:11;100975.22;;;12.23;63.45
48424;BME280;34232;42.502;26.014;2022-10-16T05:41:37;100971.41;;;12.27;63.46
48424;BME280;34232;42.502;26.014;2022-10-16T05:44:05;100977.91;;;12.34;63.32
48424;BME280;34232;42.502;26.014;2022-10-16T05:46:32;100982.97;;;12.37;63.97
48424;BME280;34232;42.502;26.014;2022-10-16T05:48:57;100977.78;;;12.36;63.35
48424;BME280;34232;42.502;26.014;2022-10-16T05:51:23;100990.09;;;12.48;62.97
48424;BME280;34232;42.502;26.014;2022-10-16T05:53:48;100984.44;;;12.52;62.67
48424;BME280;34232;42.502;26.014;2022-10-16T05:56:14;100985.16;;;12.54;62.89
48424;BME280;34232;42.502;26.014;2022-10-16T05:58:40;100979.22;;;12.64;63.02
48424;BME280;34232;42.502;26.014;2022-10-16T06:01:10;100968.47;;;12.54;62.51
48424;BME280;34232;42.502;26.014;2022-10-16T06:03:36;100985.69;;;12.71;61.87
48424;BME280;34232;42.502;26.014;2022-10-16T06:06:13;100991.25;;;12.79;61.25
48424;BME280;34232;42.502;26.014;2022-10-16T06:08:39;101002.56;;;12.92;61.17
48424;BME280;34232;42.502;26.014;2022-10-16T06:11:07;100994.63;;;12.92;60.86
48424;BME280;34232;42.502;26.014;2022-10-16T06:13:33;100998.97;;;13.04;60.44
48424;BME280;34232;42.502;26.014;2022-10-16T06:16:00;100992.38;;;13.10;60.10
48424;BME280;34232;42.502;26.014;2022-10-16T06:18:27;101007.19;;;13.23;59.49
48424;BME280;34232;42.502;26.014;2022-10-16T06:20:52;101002.13;;;13.31;59.11
48424;BME280;34232;42.502;26.014;2022-10-16T06:23:18;101009.09;;;13.32;59.02
48424;BME280;34232;42.502;26.014;2022-10-16T06:25:43;101007.53;;;13.41;58.42
48424;BME280;34232;42.502;26.014;2022-10-16T06:28:09;101009.31;;;13.52;57.71
48424;BME280;34232;42.502;26.014;2022-10-16T06:30:34;101004.72;;;13.65;57.62
48424;BME280;34232;42.502;26.014;2022-10-16T06:33:00;101009.31;;;13.74;57.08
48424;BME280;34232;42.502;26.014;2022-10-16T06:35:25;101006.63;;;13.85;56.53
48424;BME280;34232;42.502;26.014;2022-10-16T06:37:52;101008.44;;;13.96;55.85
48424;BME280;34232;42.502;26.014;2022-10-16T06:40:18;101012.84;;;14.07;55.46
48424;BME280;34232;42.502;26.014;2022-10-16T06:42:43;101022.16;;;14.22;54.74
48424;BME280;34232;42.502;26.014;2022-10-16T06:45:09;101019.47;;;14.33;54.50
48424;BME280;34232;42.502;26.014;2022-10-16T06:47:34;101021.63;;;14.39;54.65
48424;BME280;34232;42.502;26.014;2022-10-16T06:50:00;101020.03;;;14.48;54.30
48424;BME280;34232;42.502;26.014;2022-10-16T06:52:28;101029.94;;;14.66;53.43
48424;BME280;34232;42.502;26.014;2022-10-16T06:54:53;101037.56;;;14.81;53.42
48424;BME280;34232;42.502;26.014;2022-10-16T06:57:18;101033.91;;;14.93;53.02
48424;BME280;34232;42.502;26.014;2022-10-16T06:59:44;101021.53;;;15.03;52.43
48424;BME280;34232;42.502;26.014;2022-10-16T07:02:10;101033.81;;;15.25;51.02
48424;BME280;34232;42.502;26.014;2022-10-16T07:04:36;101036.22;;;15.37;51.01
48424;BME280;34232;42.502;26.014;2022-10-16T07:07:02;101029.34;;;15.56;50.34
48424;BME280;34232;42.502;26.014;2022-10-16T07:09:27;101022.53;;;15.63;49.74
48424;BME280;34232;42.502;26.014;2022-10-16T07:11:53;101028.59;;;15.84;49.29
48424;BME280;34232;42.502;26.014;2022-10-16T07:14:20;101032.81;;;15.96;49.28
48424;BME280;34232;42.502;26.014;2022-10-16T07:16:47;101026.38;;;16.08;48.63
48424;BME280;34232;42.502;26.014;2022-10-16T07:19:13;101039.84;;;16.17;48.65
48424;BME280;34232;42.502;26.014;2022-10-16T07:21:40;101035.34;;;16.27;48.31
48424;BME280;34232;42.502;26.014;2022-10-16T07:24:10;101029.63;;;16.41;48.66
48424;BME280;34232;42.502;26.014;2022-10-16T07:26:37;101032.72;;;16.56;46.88
48424;BME280;34232;42.502;26.014;2022-10-16T07:29:04;101020.00;;;16.69;46.74
48424;BME280;34232;42.502;26.014;2022-10-16T07:31:32;101024.47;;;16.88;45.43
48424;BME280;34232;42.502;26.014;2022-10-16T07:34:01;101021.88;;;17.05;45.24
48424;BME280;34232;42.502;26.014;2022-10-16T07:36:26;101028.59;;;17.19;44.61
48424;BME280;34232;42.502;26.014;2022-10-16T07:38:52;101017.75;;;17.30;43.07
48424;BME280;34232;42.502;26.014;2022-10-16T07:41:19;101009.75;;;17.30;42.87
48424;BME280;34232;42.502;26.014;2022-10-16T07:43:46;101025.94;;;17.46;41.85
48424;BME280;34232;42.502;26.014;2022-10-16T07:46:12;101022.38;;;17.56;42.86
48424;BME280;34232;42.502;26.014;2022-10-16T07:48:38;101026.13;;;17.72;41.66
48424;BME280;34232;42.502;26.014;2022-10-16T07:51:05;101024.69;;;17.78;40.79
48424;BME280;34232;42.502;26.014;2022-10-16T07:53:31;101026.44;;;17.87;40.48
48424;BME280;34232;42.502;26.014;2022-10-16T07:56:04;101023.19;;;17.93;40.37
48424;BME280;34232;42.502;26.014;2022-10-16T07:58:31;101023.66;;;18.06;41.46
48424;BME280;34232;42.502;26.014;2022-10-16T08:00:57;101024.44;;;18.16;39.61
48424;BME280;34232;42.502;26.014;2022-10-16T08:03:23;101020.72;;;18.27;39.52
48424;BME280;34232;42.502;26.014;2022-10-16T08:05:49;101016.97;;;18.38;39.30
48424;BME280;34232;42.502;26.014;2022-10-16T08:08:16;101004.56;;;18.46;39.20
48424;BME280;34232;42.502;26.014;2022-10-16T08:10:41;101014.09;;;18.67;38.38
48424;BME280;34232;42.502;26.014;2022-10-16T08:13:07;101009.53;;;18.59;38.57
48424;BME280;34232;42.502;26.014;2022-10-16T08:15:32;101006.84;;;18.77;38.66
48424;BME280;34232;42.502;26.014;2022-10-16T08:18:00;101014.78;;;18.95;38.78
48424;BME280;34232;42.502;26.014;2022-10-16T08:20:27;101006.19;;;19.09;37.92
48424;BME280;34232;42.502;26.014;2022-10-16T08:22:53;101009.59;;;19.19;37.21
48424;BME280;34232;42.502;26.014;2022-10-16T08:25:19;101011.19;;;19.38;37.20
48424;BME280;34232;42.502;26.014;2022-10-16T08:27:45;101010.13;;;19.56;37.18
48424;BME280;34232;42.502;26.014;2022-10-16T08:30:11;101011.19;;;19.72;37.67
48424;BME280;34232;42.502;26.014;2022-10-16T08:32:36;101003.88;;;19.82;37.58
48424;BME280;34232;42.502;26.014;2022-10-16T08:35:02;101003.91;;;19.98;37.58
48424;BME280;34232;42.502;26.014;2022-10-16T08:37:31;101005.97;;;20.12;36.74
48424;BME280;34232;42.502;26.014;2022-10-16T08:39:58;101005.16;;;20.28;36.48
48424;BME280;34232;42.502;26.014;2022-10-16T08:48:17;101001.31;;;20.87;32.47
48424;BME280;34232;42.502;26.014;2022-10-16T08:50:45;100997.63;;;20.80;32.51
48424;BME280;34232;42.502;26.014;2022-10-16T08:53:27;101003.94;;;20.95;32.37
48424;BME280;34232;42.502;26.014;2022-10-16T08:55:55;101000.25;;;21.05;32.81
48424;BME280;34232;42.502;26.014;2022-10-16T08:58:22;100987.84;;;21.12;32.05
48424;BME280;34232;42.502;26.014;2022-10-16T09:00:56;101008.56;;;21.34;32.66
48424;BME280;34232;42.502;26.014;2022-10-16T09:03:41;101003.38;;;21.41;31.99
48424;BME280;34232;42.502;26.014;2022-10-16T09:06:38;101009.50;;;21.49;32.04
48424;BME280;34232;42.502;26.014;2022-10-16T09:20:25;101008.88;;;22.09;30.34
48424;BME280;34232;42.502;26.014;2022-10-16T09:23:13;101005.31;;;22.17;29.97
48424;BME280;34232;42.502;26.014;2022-10-16T09:25:41;100999.78;;;22.18;30.22
48424;BME280;34232;42.502;26.014;2022-10-16T09:28:08;100997.47;;;22.15;30.47
48424;BME280;34232;42.502;26.014;2022-10-16T09:30:34;101004.41;;;22.24;30.16
48424;BME280;34232;42.502;26.014;2022-10-16T09:33:00;100992.69;;;22.25;29.41
48424;BME280;34232;42.502;26.014;2022-10-16T09:35:33;100988.84;;;22.43;29.59
48424;BME280;34232;42.502;26.014;2022-10-16T09:38:00;100996.09;;;22.57;29.01
48424;BME280;34232;42.502;26.014;2022-10-16T09:40:30;100993.38;;;22.65;29.45
48424;BME280;34232;42.502;26.014;2022-10-16T09:45:27;100999.56;;;22.88;28.22
48424;BME280;34232;42.502;26.014;2022-10-16T09:47:53;100985.94;;;22.90;28.82
48424;BME280;34232;42.502;26.014;2022-10-16T09:50:26;101003.81;;;22.97;28.08
48424;BME280;34232;42.502;26.014;2022-10-16T09:53:11;100992.34;;;23.03;28.57
48424;BME280;34232;42.502;26.014;2022-10-16T09:55:48;100990.28;;;23.06;28.76
48424;BME280;34232;42.502;26.014;2022-10-16T09:58:17;100991.34;;;23.19;28.56
48424;BME280;34232;42.502;26.014;2022-10-16T10:00:49;100975.38;;;23.32;28.77
48424;BME280;34232;42.502;26.014;2022-10-16T10:03:33;100981.41;;;23.49;27.96
48424;BME280;34232;42.502;26.014;2022-10-16T10:06:02;100981.41;;;23.49;28.47
48424;BME280;34232;42.502;26.014;2022-10-16T10:08:30;100980.31;;;22.99;27.91
48424;BME280;34232;42.502;26.014;2022-10-16T10:10:55;100981.69;;;22.95;27.80
48424;BME280;34232;42.502;26.014;2022-10-16T10:13:22;100983.28;;;23.05;29.05
48424;BME280;34232;42.502;26.014;2022-10-16T10:15:58;100977.81;;;23.13;28.91
48424;BME280;34232;42.502;26.014;2022-10-16T10:18:24;100975.13;;;23.13;28.56
48424;BME280;34232;42.502;26.014;2022-10-16T10:21:00;100970.03;;;23.18;28.61
48424;BME280;34232;42.502;26.014;2022-10-16T10:23:27;100965.56;;;23.25;28.69
48424;BME280;34232;42.502;26.014;2022-10-16T10:31:36;100959.59;;;23.44;28.29
48424;BME280;34232;42.502;26.014;2022-10-16T10:36:40;100948.69;;;23.46;28.21
48424;BME280;34232;42.502;26.014;2022-10-16T10:39:16;100939.06;;;23.51;28.50
48424;BME280;34232;42.502;26.014;2022-10-16T10:42:15;100953.69;;;23.63;28.34
48424;BME280;34232;42.502;26.014;2022-10-16T10:44:54;100943.75;;;23.49;27.75
48424;BME280;34232;42.502;26.014;2022-10-16T10:47:46;100946.53;;;23.41;28.34
48424;BME280;34232;42.502;26.014;2022-10-16T10:59:21;100934.94;;;23.05;27.91
48424;BME280;34232;42.502;26.014;2022-10-16T11:02:05;100937.31;;;22.99;28.64
48424;BME280;34232;42.502;26.014;2022-10-16T11:05:12;100938.88;;;22.94;28.00
48424;BME280;34232;42.502;26.014;2022-10-16T11:07:39;100936.09;;;22.73;28.19
48424;BME280;34232;42.502;26.014;2022-10-16T11:10:25;100931.09;;;22.69;28.43
48424;BME280;34232;42.502;26.014;2022-10-16T11:12:59;100928.94;;;22.65;28.73
48424;BME280;34232;42.502;26.014;2022-10-16T11:15:36;100932.06;;;22.54;28.55
48424;BME280;34232;42.502;26.014;2022-10-16T11:18:07;100928.16;;;22.42;28.95
48424;BME280;34232;42.502;26.014;2022-10-16T11:20:42;100931.91;;;22.18;28.91
48424;BME280;34232;42.502;26.014;2022-10-16T11:23:23;100924.22;;;21.84;29.75
48424;BME280;34232;42.502;26.014;2022-10-16T11:25:50;100931.84;;;21.95;30.04
48424;BME280;34232;42.502;26.014;2022-10-16T11:31:08;100923.53;;;21.90;29.86
48424;BME280;34232;42.502;26.014;2022-10-16T11:39:24;100918.22;;;21.82;30.64
48424;BME280;34232;42.502;26.014;2022-10-16T11:47:08;100917.06;;;21.76;30.40
48424;BME280;34232;42.502;26.014;2022-10-16T11:49:36;100928.44;;;21.55;30.36
48424;BME280;34232;42.502;26.014;2022-10-16T11:55:16;100928.56;;;21.31;30.71
48424;BME280;34232;42.502;26.014;2022-10-16T11:57:57;100922.25;;;21.24;31.06
48424;BME280;34232;42.502;26.014;2022-10-16T12:00:31;100921.03;;;21.18;31.07
48424;BME280;34232;42.502;26.014;2022-10-16T12:08:26;100915.94;;;21.01;30.45
48424;BME280;34232;42.502;26.014;2022-10-16T12:10:52;100922.78;;;20.95;30.55
48424;BME280;34232;42.502;26.014;2022-10-16T12:13:30;100923.63;;;20.95;30.93
48424;BME280;34232;42.502;26.014;2022-10-16T12:18:38;100911.91;;;20.96;30.17
48424;BME280;34232;42.502;26.014;2022-10-16T12:21:04;100915.75;;;21.02;30.32
48424;BME280;34232;42.502;26.014;2022-10-16T12:23:52;100925.63;;;21.10;30.36
48424;BME280;34232;42.502;26.014;2022-10-16T12:26:38;100926.78;;;21.07;30.00
48424;BME280;34232;42.502;26.014;2022-10-16T12:29:18;100911.56;;;21.00;31.05
48424;BME280;34232;42.502;26.014;2022-10-16T12:31:48;100921.44;;;21.07;30.17
48424;BME280;34232;42.502;26.014;2022-10-16T12:34:38;100919.44;;;21.01;30.31
48424;BME280;34232;42.502;26.014;2022-10-16T12:37:28;100925.97;;;21.07;29.89
48424;BME280;34232;42.502;26.014;2022-10-16T12:39:56;100938.19;;;21.01;29.94
48424;BME280;34232;42.502;26.014;2022-10-16T12:42:30;100945.41;;;20.92;30.11
48424;BME280;34232;42.502;26.014;2022-10-16T12:44:56;100938.06;;;20.78;30.55
48424;BME280;34232;42.502;26.014;2022-10-16T12:49:55;100941.06;;;20.83;30.04
48424;BME280;34232;42.502;26.014;2022-10-16T12:52:31;100930.88;;;20.87;30.28
48424;BME280;34232;42.502;26.014;2022-10-16T12:55:00;100938.72;;;20.88;30.05
48424;BME280;34232;42.502;26.014;2022-10-16T13:19:38;100938.56;;;20.90;29.76
48424;BME280;34232;42.502;26.014;2022-10-16T13:22:18;100945.91;;;20.80;29.90
48424;BME280;34232;42.502;26.014;2022-10-16T13:30:26;100943.78;;;20.75;30.11
48424;BME280;34232;42.502;26.014;2022-10-16T13:35:30;100940.56;;;20.80;29.78
48424;BME280;34232;42.502;26.014;2022-10-16T13:38:19;100946.75;;;20.80;29.86
48424;BME280;34232;42.502;26.014;2022-10-16T13:40:58;100941.06;;;20.83;30.34
48424;BME280;34232;42.502;26.014;2022-10-16T13:43:38;100947.13;;;20.77;29.84
48424;BME280;34232;42.502;26.014;2022-10-16T13:46:05;100944.63;;;20.76;29.76
48424;BME280;34232;42.502;26.014;2022-10-16T13:48:32;100951.16;;;20.73;29.66
48424;BME280;34232;42.502;26.014;2022-10-16T13:51:03;100938.25;;;20.69;29.62
48424;BME280;34232;42.502;26.014;2022-10-16T13:53:36;100948.47;;;20.73;29.88
48424;BME280;34232;42.502;26.014;2022-10-16T13:56:07;100949.13;;;20.67;29.65
48424;BME280;34232;42.502;26.014;2022-10-16T13:58:33;100953.16;;;20.71;29.87
48424;BME280;34232;42.502;26.014;2022-10-16T14:01:00;100954.81;;;20.72;29.53
48424;BME280;34232;42.502;26.014;2022-10-16T14:03:28;100948.78;;;20.62;29.60
48424;BME280;34232;42.502;26.014;2022-10-16T14:05:58;100941.97;;;20.51;29.86
48424;BME280;34232;42.502;26.014;2022-10-16T14:08:25;100951.81;;;20.51;29.60
48424;BME280;34232;42.502;26.014;2022-10-16T14:10:57;100942.66;;;20.45;29.87
48424;BME280;34232;42.502;26.014;2022-10-16T14:13:37;100952.53;;;20.45;29.92
48424;BME280;34232;42.502;26.014;2022-10-16T14:16:09;100969.56;;;20.44;30.02
48424;BME280;34232;42.502;26.014;2022-10-16T14:18:37;100955.81;;;20.22;30.07
48424;BME280;34232;42.502;26.014;2022-10-16T14:21:11;100969.72;;;20.26;30.05
48424;BME280;34232;42.502;26.014;2022-10-16T14:23:40;100963.66;;;20.16;29.88
48424;BME280;34232;42.502;26.014;2022-10-16T14:26:17;100969.16;;;20.14;29.99
48424;BME280;34232;42.502;26.014;2022-10-16T14:28:45;100970.53;;;20.10;30.43
48424;BME280;34232;42.502;26.014;2022-10-16T14:31:32;100957.47;;;19.99;29.54
48424;BME280;34232;42.502;26.014;2022-10-16T14:33:58;100975.19;;;20.00;29.87
48424;BME280;34232;42.502;26.014;2022-10-16T14:36:26;100978.00;;;19.99;30.24